Time;durP1;ratioP1;P1;durP2;ratioP2;P2;SDS_P1;SDS_P2;PMS_P1;PMS_P2;Temp;Humidity;BMP_temperature;BMP_pressure;BME280_temperature;BME280_humidity;BME280_pressure;Samples;Min_cycle;Max_cycle;Signal;HPM_P1;HPM_P2
2023/09/05 00:01:56;;;;;;;5.20;4.23;;;;;;;12.87;100.00;102026.72;6066413;23;20457;-70
2023/09/05 00:04:22;;;;;;;6.10;4.33;;;;;;;15.52;100.00;102414.22;6087948;23;20483;-70
2023/09/05 00:06:48;;;;;;;6.57;5.07;;;;;;;15.34;100.00;102391.19;6087989;23;20162;-70
2023/09/05 00:09:15;;;;;;;5.90;4.87;;;;;;;15.55;100.00;102428.19;6089041;23;20570;-70
2023/09/05 00:11:40;;;;;;;5.33;4.53;;;;;;;15.52;100.00;102420.47;6089512;23;20257;-70
2023/09/05 00:14:06;;;;;;;5.50;4.47;;;;;;;15.24;100.00;102363.63;6088542;23;20425;-70
2023/09/05 00:16:31;;;;;;;6.50;4.97;;;;;;;14.79;100.00;102356.69;6090840;23;20231;-70
2023/09/05 00:18:57;;;;;;;6.10;4.77;;;;;;;15.34;100.00;102409.28;6090907;23;20519;-70
2023/09/05 00:21:22;;;;;;;6.67;5.83;;;;;;;14.86;100.00;102309.81;6090534;23;20162;-70
2023/09/05 00:23:48;;;;;;;6.40;5.60;;;;;;;15.17;100.00;102397.84;6091280;23;20166;-70
2023/09/05 00:26:13;;;;;;;6.70;5.40;;;;;;;14.56;100.00;102298.25;6090767;23;20284;-70
2023/09/05 00:28:42;;;;;;;7.90;5.60;;;;;;;15.46;100.00;102448.28;6089226;23;20269;-70
2023/09/05 00:31:08;;;;;;;6.50;5.50;;;;;;;15.45;100.00;102443.91;6091908;23;20159;-70
2023/09/05 00:33:33;;;;;;;7.33;5.77;;;;;;;15.39;100.00;102420.34;6091583;23;20392;-70
2023/09/05 00:35:59;;;;;;;6.80;5.63;;;;;;;15.44;100.00;102446.78;6090871;23;20646;-70
2023/09/05 00:38:24;;;;;;;7.43;5.10;;;;;;;14.45;100.00;102323.00;6092192;23;20245;-70
2023/09/05 00:40:50;;;;;;;6.87;5.73;;;;;;;15.21;100.00;102455.06;6092140;23;20505;-70
2023/09/05 00:43:20;;;;;;;8.07;5.50;;;;;;;15.30;100.00;102451.22;6091684;23;20155;-70
2023/09/05 00:45:55;;;;;;;7.40;6.13;;;;;;;15.26;100.00;102433.72;6091790;23;20150;-70
2023/09/05 00:48:27;;;;;;;9.40;6.47;;;;;;;15.18;100.00;102442.78;6089796;23;20795;-70
2023/09/05 00:50:56;;;;;;;6.07;5.40;;;;;;;15.22;100.00;102422.47;6091601;23;20454;-70
2023/09/05 00:53:26;;;;;;;6.27;5.63;;;;;;;15.37;100.00;102431.34;6090356;23;20933;-70
2023/09/05 00:55:52;;;;;;;7.30;6.30;;;;;;;15.21;100.00;102398.31;6089472;23;20426;-70
2023/09/05 00:58:18;;;;;;;7.97;6.50;;;;;;;15.04;100.00;102395.84;6089518;23;20980;-70
2023/09/05 01:00:43;;;;;;;6.27;5.60;;;;;;;14.92;100.00;102383.84;6089871;23;20233;-70
2023/09/05 01:03:09;;;;;;;8.23;5.13;;;;;;;14.56;100.00;102354.97;6090860;23;20773;-70
2023/09/05 01:05:37;;;;;;;6.50;5.50;;;;;;;14.64;100.00;102379.16;6091208;23;20181;-70
2023/09/05 01:08:26;;;;;;;7.43;5.77;;;;;;;14.80;100.00;102379.97;6089587;23;20569;-70
2023/09/05 01:10:58;;;;;;;8.00;6.40;;;;;;;14.76;100.00;102376.81;6089402;23;20430;-70
2023/09/05 01:13:25;;;;;;;7.17;6.20;;;;;;;15.17;100.00;102443.81;6089889;23;20372;-70
2023/09/05 01:15:51;;;;;;;8.20;6.30;;;;;;;14.89;100.00;102384.22;6089822;23;21254;-70
2023/09/05 01:18:17;;;;;;;7.37;6.20;;;;;;;14.83;100.00;102393.09;6090913;23;20395;-70
2023/09/05 01:21:00;;;;;;;6.67;5.67;;;;;;;15.10;100.00;102426.66;6090362;23;20436;-70
2023/09/05 01:23:35;;;;;;;6.90;5.70;;;;;;;14.72;100.00;102351.19;6091073;23;20146;-70
2023/09/05 01:26:01;;;;;;;7.50;6.20;;;;;;;14.82;100.00;102377.94;6091580;23;20386;-70
2023/09/05 01:28:28;;;;;;;7.73;6.10;;;;;;;14.37;100.00;102323.09;6091447;23;20402;-70
2023/09/05 01:30:53;;;;;;;7.80;6.73;;;;;;;14.28;100.00;102321.53;6090220;23;20555;-70
2023/09/05 01:33:19;;;;;;;7.10;6.30;;;;;;;14.74;100.00;102349.16;6089643;23;20379;-70
2023/09/05 01:35:44;;;;;;;7.90;5.87;;;;;;;14.58;100.00;102335.84;6089820;23;20174;-70
2023/09/05 01:38:10;;;;;;;10.30;6.50;;;;;;;14.47;100.00;102345.25;6089722;23;20178;-70
2023/09/05 01:40:36;;;;;;;7.60;6.20;;;;;;;14.20;100.00;102299.03;6090110;23;20188;-70
2023/09/05 01:43:01;;;;;;;7.20;6.03;;;;;;;14.43;100.00;102327.75;6090926;23;20721;-70
2023/09/05 01:45:27;;;;;;;7.90;5.87;;;;;;;14.79;100.00;102392.66;6089319;23;20669;-70
2023/09/05 01:47:52;;;;;;;7.17;5.87;;;;;;;14.69;100.00;102382.16;6090665;23;20182;-70
2023/09/05 01:50:19;;;;;;;7.33;6.13;;;;;;;14.77;100.00;102383.88;6064864;23;20481;-70
2023/09/05 01:52:45;;;;;;;7.20;5.80;;;;;;;14.67;100.00;102375.25;6089072;23;20593;-70
2023/09/05 01:55:10;;;;;;;6.90;6.20;;;;;;;14.69;100.00;102360.53;6090624;23;20425;-70
2023/09/05 01:57:35;;;;;;;8.07;6.17;;;;;;;14.77;100.00;102381.19;6089256;23;20162;-70
2023/09/05 02:00:01;;;;;;;8.00;6.33;;;;;;;14.22;100.00;102321.25;6090312;23;20178;-70
2023/09/05 02:02:26;;;;;;;6.77;5.13;;;;;;;14.73;100.00;102388.00;6089160;23;20349;-70
2023/09/05 02:04:51;;;;;;;7.73;6.57;;;;;;;14.23;100.00;102316.69;6089038;23;20234;-70
2023/09/05 02:07:18;;;;;;;6.33;5.60;;;;;;;14.06;100.00;102275.59;6065376;23;20166;-70
2023/09/05 02:09:44;;;;;;;6.90;5.70;;;;;;;13.78;100.00;102243.88;6089181;23;20222;-70
2023/09/05 02:12:09;;;;;;;8.07;6.00;;;;;;;14.69;100.00;102384.84;6089192;23;20375;-70
2023/09/05 02:14:36;;;;;;;7.67;6.10;;;;;;;13.86;100.00;102244.81;6090130;23;20159;-70
2023/09/05 02:17:02;;;;;;;7.17;5.93;;;;;;;13.76;100.00;102258.56;6091440;23;20002;-70
2023/09/05 02:19:28;;;;;;;7.00;5.70;;;;;;;14.22;100.00;102315.03;6091187;23;20889;-70
2023/09/05 02:21:55;;;;;;;8.10;6.30;;;;;;;14.48;100.00;102347.75;6066226;23;20390;-70
2023/09/05 02:24:20;;;;;;;7.73;5.90;;;;;;;14.61;100.00;102379.53;6092445;23;20385;-70
2023/09/05 02:26:46;;;;;;;6.77;5.30;;;;;;;14.60;100.00;102379.72;6091028;23;20379;-70
2023/09/05 02:29:11;;;;;;;7.30;6.00;;;;;;;14.11;100.00;102299.28;6091313;23;20312;-70
2023/09/05 02:31:37;;;;;;;6.83;5.43;;;;;;;14.60;100.00;102368.91;6090718;23;20162;-70
2023/09/05 02:34:02;;;;;;;7.87;6.20;;;;;;;14.40;100.00;102355.13;6092545;23;20157;-70
2023/09/05 02:36:30;;;;;;;7.73;5.53;;;;;;;13.88;100.00;102292.13;6065136;23;20530;-70
2023/09/05 02:38:56;;;;;;;6.87;5.97;;;;;;;13.74;100.00;102276.75;6065494;23;20218;-70
2023/09/05 02:41:22;;;;;;;7.90;5.80;;;;;;;14.46;100.00;102376.81;6091354;23;20534;-70
2023/09/05 02:43:49;;;;;;;8.00;5.80;;;;;;;13.52;100.00;102270.44;6092373;23;20429;-70
2023/09/05 02:46:14;;;;;;;8.07;5.37;;;;;;;14.31;100.00;102375.97;6066837;23;20235;-70
2023/09/05 02:48:41;;;;;;;12.00;6.10;;;;;;;14.51;100.00;102373.53;6089798;23;20434;-70
2023/09/05 02:51:10;;;;;;;8.03;5.90;;;;;;;14.08;100.00;102321.25;6087383;23;20150;-70
2023/09/05 02:53:37;;;;;;;6.30;5.40;;;;;;;14.41;100.00;102381.09;6089767;23;20454;-70
2023/09/05 02:56:03;;;;;;;6.03;5.20;;;;;;;14.42;100.00;102374.69;6091168;23;20444;-70
2023/09/05 02:58:30;;;;;;;7.00;5.60;;;;;;;13.50;100.00;102259.00;6089566;23;20421;-70
2023/09/05 03:01:03;;;;;;;8.90;6.20;;;;;;;14.19;100.00;102375.59;6090470;23;20379;-70
2023/09/05 03:03:29;;;;;;;7.07;5.97;;;;;;;14.05;100.00;102340.50;6090314;23;20417;-70
2023/09/05 03:05:55;;;;;;;6.77;5.33;;;;;;;14.06;100.00;102366.47;6089330;23;20386;-70
2023/09/05 03:08:21;;;;;;;7.83;5.87;;;;;;;13.37;100.00;102242.63;6090479;23;20858;-70
2023/09/05 03:10:51;;;;;;;7.37;6.17;;;;;;;14.05;100.00;102354.00;6090013;23;20381;-70
2023/09/05 03:13:17;;;;;;;6.30;5.20;;;;;;;14.20;100.00;102361.09;6088605;23;20177;-70
2023/09/05 03:15:43;;;;;;;7.37;5.90;;;;;;;13.81;100.00;102306.56;6089533;23;20538;-70
2023/09/05 03:18:08;;;;;;;7.10;5.63;;;;;;;13.05;100.00;102213.06;6088580;23;20422;-70
2023/09/05 03:20:33;;;;;;;5.77;4.93;;;;;;;13.82;100.00;102327.94;6089047;23;20158;-70
2023/09/05 03:22:59;;;;;;;6.00;4.87;;;;;;;14.06;100.00;102358.38;6063623;23;20169;-70
2023/09/05 03:25:24;;;;;;;7.93;4.97;;;;;;;14.32;100.00;102366.00;6090293;23;20154;-70
2023/09/05 03:27:50;;;;;;;5.70;4.50;;;;;;;13.74;100.00;102292.94;6089573;23;20536;-70
2023/09/05 03:30:15;;;;;;;6.30;4.90;;;;;;;14.04;100.00;102341.53;6090691;23;20220;-70
2023/09/05 03:32:41;;;;;;;6.83;4.80;;;;;;;13.74;100.00;102277.63;6091278;23;20593;-70
2023/09/05 03:35:06;;;;;;;6.60;5.70;;;;;;;13.97;100.00;102336.91;6088562;23;20171;-70
2023/09/05 03:37:32;;;;;;;6.30;5.30;;;;;;;14.01;100.00;102323.88;6089248;23;20496;-70
2023/09/05 03:39:57;;;;;;;8.20;5.37;;;;;;;13.97;100.00;102317.16;6063558;23;20314;-70
2023/09/05 03:42:23;;;;;;;7.67;5.40;;;;;;;14.17;100.00;102347.94;6090173;23;20155;-70
2023/09/05 03:44:48;;;;;;;6.17;4.87;;;;;;;14.13;100.00;102341.25;6088993;23;20175;-70
2023/09/05 03:47:14;;;;;;;6.23;5.00;;;;;;;13.58;100.00;102237.34;6087017;23;20237;-70
2023/09/05 03:49:39;;;;;;;6.00;4.60;;;;;;;13.90;100.00;102294.66;6088856;23;20174;-71
2023/09/05 03:52:05;;;;;;;5.83;4.43;;;;;;;14.17;100.00;102333.63;6086832;23;20154;-70
2023/09/05 03:54:30;;;;;;;7.40;5.10;;;;;;;14.26;100.00;102340.59;6088063;23;20186;-70
2023/09/05 03:56:56;;;;;;;6.00;4.80;;;;;;;14.22;100.00;102340.13;6090535;23;20764;-70
2023/09/05 03:59:21;;;;;;;;;;;;;;;14.19;100.00;102345.91;6088791;23;20070;-70
2023/09/05 04:01:50;;;;;;;5.60;4.80;;;;;;;13.48;100.00;102234.94;6089011;23;19913;-70
2023/09/05 04:04:15;;;;;;;6.00;4.40;;;;;;;14.32;100.00;102339.00;6088734;23;20154;-70
2023/09/05 04:06:41;;;;;;;6.93;5.10;;;;;;;13.07;100.00;102184.06;6085401;23;20378;-70
2023/09/05 04:09:06;;;;;;;8.10;4.60;;;;;;;13.40;100.00;102215.31;6091339;23;20170;-70
2023/09/05 04:11:33;;;;;;;5.40;4.50;;;;;;;14.25;100.00;102344.31;6089925;23;20481;-70
2023/09/05 04:13:58;;;;;;;6.63;4.63;;;;;;;14.08;100.00;102324.78;6090676;23;20838;-70
2023/09/05 04:16:24;;;;;;;6.00;4.20;;;;;;;13.97;100.00;102304.53;6090731;23;20473;-70
2023/09/05 04:18:49;;;;;;;5.43;4.57;;;;;;;13.51;100.00;102223.78;6091213;23;20224;-70
2023/09/05 04:21:14;;;;;;;7.80;4.80;;;;;;;14.18;100.00;102346.94;6091543;23;25050;-70
2023/09/05 04:23:40;;;;;;;6.00;4.80;;;;;;;14.28;100.00;102349.34;6092385;23;20158;-70
2023/09/05 04:26:05;;;;;;;6.77;5.53;;;;;;;14.15;100.00;102333.81;6093097;23;20173;-70
2023/09/05 04:28:31;;;;;;;8.23;4.67;;;;;;;13.65;100.00;102240.13;6091153;23;20253;-70
2023/09/05 04:31:01;;;;;;;6.40;5.23;;;;;;;13.32;100.00;102208.97;6090644;23;20155;-70
2023/09/05 04:33:27;;;;;;;5.70;4.80;;;;;;;13.54;100.00;102239.59;6092851;23;20143;-70
2023/09/05 04:35:52;;;;;;;6.93;5.23;;;;;;;13.60;100.00;102224.53;6092280;23;21286;-70
2023/09/05 04:38:18;;;;;;;7.20;4.90;;;;;;;13.94;100.00;102298.63;6092545;23;20175;-70
2023/09/05 04:40:44;;;;;;;7.30;4.90;;;;;;;14.15;100.00;102333.00;6088691;23;20203;-70
2023/09/05 04:43:09;;;;;;;6.43;4.83;;;;;;;14.29;100.00;102351.06;6090661;23;20294;-70
2023/09/05 04:45:34;;;;;;;6.30;5.00;;;;;;;14.30;100.00;102371.59;6063583;23;20159;-70
2023/09/05 04:48:00;;;;;;;6.50;5.50;;;;;;;14.08;100.00;102334.75;6063397;23;20241;-71
2023/09/05 04:50:25;;;;;;;7.10;5.13;;;;;;;14.23;100.00;102371.53;6064190;23;20277;-70
2023/09/05 04:52:51;;;;;;;6.93;5.70;;;;;;;14.13;100.00;102362.00;6066057;23;20169;-70
2023/09/05 04:55:16;;;;;;;5.80;5.00;;;;;;;14.28;100.00;102383.59;6083206;23;20178;-70
2023/09/05 04:57:42;;;;;;;7.60;5.23;;;;;;;14.10;100.00;102365.09;6090572;23;20177;-70
2023/09/05 05:00:13;;;;;;;6.77;5.03;;;;;;;14.12;100.00;102363.06;6091556;23;20182;-70
2023/09/05 05:02:39;;;;;;;7.40;4.70;;;;;;;14.22;100.00;102358.19;6065388;23;20605;-70
2023/09/05 05:05:05;;;;;;;6.77;5.50;;;;;;;14.35;100.00;102368.31;6091367;23;20378;-70
2023/09/05 05:07:31;;;;;;;6.47;5.27;;;;;;;13.98;100.00;102333.16;6087809;23;20457;-70
2023/09/05 05:09:56;;;;;;;8.40;5.53;;;;;;;14.08;100.00;102332.03;6092377;23;20436;-70
2023/09/05 05:12:22;;;;;;;5.90;4.87;;;;;;;13.92;100.00;102288.06;6091255;23;20151;-70
2023/09/05 05:14:48;;;;;;;7.53;5.73;;;;;;;13.98;100.00;102322.38;6092443;23;21133;-70
2023/09/05 05:17:13;;;;;;;;;;;;;;;14.35;100.00;102362.94;6092663;23;20381;-70
2023/09/05 05:19:38;;;;;;;;;;;;;;;14.25;100.00;102374.84;6091934;23;19989;-70
2023/09/05 05:22:05;;;;;;;;;;;;;;;14.24;100.00;102366.97;6067777;23;19988;-71
2023/09/05 05:24:31;;;;;;;6.05;5.10;;;;;;;13.56;100.00;102255.56;6093790;23;19916;-70
2023/09/05 05:26:57;;;;;;;5.90;4.73;;;;;;;14.09;100.00;102348.06;6092641;23;20379;-70
2023/09/05 05:29:22;;;;;;;6.70;5.43;;;;;;;14.33;100.00;102376.63;6091143;23;20637;-70
2023/09/05 05:31:48;;;;;;;8.10;5.50;;;;;;;14.21;100.00;102376.25;6089917;23;20180;-70
2023/09/05 05:34:14;;;;;;;9.43;5.07;;;;;;;14.32;100.00;102368.69;6092374;23;20154;-70
2023/09/05 05:36:40;;;;;;;6.30;5.30;;;;;;;14.07;100.00;102281.81;6091062;23;20506;-70
2023/09/05 05:39:05;;;;;;;6.13;4.80;;;;;;;13.74;100.00;102231.78;6091969;23;20257;-70
2023/09/05 05:41:33;;;;;;;6.13;5.33;;;;;;;14.51;100.00;102362.75;6090411;23;20214;-70
2023/09/05 05:43:58;;;;;;;10.00;5.70;;;;;;;13.70;100.00;102233.16;6090785;23;20165;-70
2023/09/05 05:46:24;;;;;;;6.70;5.47;;;;;;;14.12;100.00;102292.91;6091756;23;20367;-70
2023/09/05 05:48:51;;;;;;;7.13;4.67;;;;;;;13.74;100.00;102239.00;6091018;23;20171;-70
2023/09/05 05:51:17;;;;;;;6.50;5.10;;;;;;;14.09;100.00;102304.91;6091576;23;20633;-70
2023/09/05 05:53:44;;;;;;;6.40;4.90;;;;;;;13.82;100.00;102232.69;6091495;23;20387;-70
2023/09/05 05:56:10;;;;;;;5.53;4.60;;;;;;;13.90;100.00;102249.63;6067716;23;20178;-70
2023/09/05 05:58:36;;;;;;;6.00;4.70;;;;;;;14.52;100.00;102366.31;6090183;23;20571;-70
2023/09/05 06:01:02;;;;;;;6.63;4.60;;;;;;;14.48;100.00;102382.84;6092670;23;20155;-70
2023/09/05 06:03:27;;;;;;;8.50;5.30;;;;;;;14.60;100.00;102375.16;6092709;23;20481;-70
2023/09/05 06:05:54;;;;;;;6.07;4.80;;;;;;;14.19;100.00;102331.59;6067260;23;20407;-71
2023/09/05 06:08:21;;;;;;;6.40;4.13;;;;;;;14.30;100.00;102320.31;6066335;23;20847;-70
2023/09/05 06:10:46;;;;;;;6.00;4.73;;;;;;;14.73;100.00;102376.38;6093056;23;20402;-70
2023/09/05 06:13:12;;;;;;;8.07;4.90;;;;;;;14.39;100.00;102334.56;6066533;23;20405;-70
2023/09/05 06:15:38;;;;;;;6.30;4.87;;;;;;;14.97;100.00;102381.41;6090681;23;20178;-70
2023/09/05 06:18:05;;;;;;;5.33;4.30;;;;;;;13.92;100.00;102242.19;6091907;23;20237;-70
2023/09/05 06:20:32;;;;;;;6.50;4.87;;;;;;;14.84;100.00;102409.13;6091177;23;20385;-70
2023/09/05 06:22:58;;;;;;;6.00;4.73;;;;;;;14.14;100.00;102307.84;6090683;23;20388;-70
2023/09/05 06:25:24;;;;;;;6.00;4.70;;;;;;;14.63;100.00;102385.56;6091640;23;20462;-70
2023/09/05 06:27:49;;;;;;;5.10;4.33;;;;;;;15.07;100.00;102418.94;6091747;23;20511;-70
2023/09/05 06:30:15;;;;;;;5.97;4.93;;;;;;;15.16;100.00;102417.81;6091491;23;20494;-70
2023/09/05 06:32:41;;;;;;;6.07;5.03;;;;;;;14.98;100.00;102358.75;6090304;23;20513;-70
2023/09/05 06:35:07;;;;;;;6.93;4.77;;;;;;;14.85;100.00;102337.03;6092159;23;20178;-70
2023/09/05 06:37:34;;;;;;;6.67;5.20;;;;;;;15.26;100.00;102403.97;6090809;23;20904;-70
2023/09/05 06:40:09;;;;;;;7.03;4.70;;;;;;;15.00;100.00;102372.09;6090570;23;20403;-70
2023/09/05 06:42:36;;;;;;;7.00;4.70;;;;;;;15.44;100.00;102426.00;6092396;23;20742;-70
2023/09/05 06:45:03;;;;;;;5.47;4.77;;;;;;;15.60;100.00;102436.56;6092809;23;20795;-70
2023/09/05 06:47:29;;;;;;;6.93;4.80;;;;;;;15.54;100.00;102409.47;6067122;23;20396;-70
2023/09/05 06:49:54;;;;;;;6.13;5.20;;;;;;;15.74;100.00;102436.75;6066242;23;20410;-70
2023/09/05 06:52:19;;;;;;;5.40;4.53;;;;;;;15.79;100.00;102436.97;6062407;23;20169;-70
2023/09/05 06:54:45;;;;;;;7.77;5.00;;;;;;;15.60;100.00;102387.06;6091457;23;20501;-70
2023/09/05 06:57:10;;;;;;;9.40;4.20;;;;;;;15.87;100.00;102422.47;6066329;23;20594;-70
2023/09/05 06:59:36;;;;;;;5.37;4.53;;;;;;;16.01;100.00;102444.03;6064277;23;20186;-70
2023/09/05 07:02:04;;;;;;;6.17;4.50;;;;;;;16.19;100.00;102426.47;6091728;23;20170;-70
2023/09/05 07:04:32;;;;;;;8.00;4.67;;;;;;;16.27;100.00;102421.75;6091914;23;20158;-70
2023/09/05 07:06:58;;;;;;;7.20;5.10;;;;;;;16.32;100.00;102432.00;6088991;23;20379;-70
2023/09/05 07:09:24;;;;;;;5.20;4.17;;;;;;;16.28;100.00;102390.09;6064270;23;20802;-70
2023/09/05 07:11:50;;;;;;;5.80;4.60;;;;;;;16.48;100.00;102412.69;6092433;23;20275;-70
2023/09/05 07:14:15;;;;;;;5.53;3.97;;;;;;;15.60;100.00;102268.88;6066073;23;20395;-70
2023/09/05 07:16:41;;;;;;;4.83;3.80;;;;;;;16.51;100.00;102397.94;6091315;23;20225;-70
2023/09/05 07:19:06;;;;;;;5.70;4.70;;;;;;;15.88;100.00;102276.19;6088572;23;20541;-70
2023/09/05 07:21:31;;;;;;;5.40;4.00;;;;;;;16.66;100.00;102378.81;6065644;23;20170;-70
2023/09/05 07:23:57;;;;;;;5.13;3.67;;;;;;;16.45;100.00;102364.34;6091671;23;20211;-70
2023/09/05 07:26:22;;;;;;;5.90;4.33;;;;;;;16.70;100.00;102375.50;6090691;23;20592;-70
2023/09/05 07:28:48;;;;;;;5.70;4.40;;;;;;;16.61;100.00;102379.44;6091280;23;20185;-70
2023/09/05 07:31:14;;;;;;;5.63;4.00;;;;;;;16.47;100.00;102315.41;6065414;23;20159;-70
2023/09/05 07:33:40;;;;;;;5.20;3.90;;;;;;;16.92;100.00;102381.69;6090961;23;20158;-70
2023/09/05 07:36:06;;;;;;;5.30;4.00;;;;;;;16.84;100.00;102352.06;6090082;23;20467;-70
2023/09/05 07:38:32;;;;;;;5.73;4.23;;;;;;;16.44;100.00;102275.19;6087842;23;20406;-70
2023/09/05 07:41:05;;;;;;;5.80;4.10;;;;;;;17.03;100.00;102346.88;6066986;23;20158;-70
2023/09/05 07:43:33;;;;;;;5.40;3.90;;;;;;;17.09;100.00;102359.63;6091804;23;20161;-70
2023/09/05 07:45:59;;;;;;;7.50;4.30;;;;;;;16.60;100.00;102309.19;6090980;23;20374;-70
2023/09/05 07:48:24;;;;;;;5.20;3.83;;;;;;;17.20;100.00;102393.44;6064251;23;20410;-70
2023/09/05 07:50:50;;;;;;;5.50;3.67;;;;;;;17.09;100.00;102376.72;6089633;23;20157;-70
2023/09/05 07:53:15;;;;;;;5.63;3.37;;;;;;;16.54;100.00;102234.16;6089930;23;20158;-70
2023/09/05 07:55:41;;;;;;;5.40;3.40;;;;;;;17.02;100.00;102299.13;6090881;23;20418;-70
2023/09/05 07:58:06;;;;;;;4.23;3.23;;;;;;;17.20;100.00;102295.81;6090126;23;20269;-71
2023/09/05 08:00:32;;;;;;;5.07;3.97;;;;;;;17.08;100.00;102260.34;6064184;23;20224;-71
2023/09/05 08:02:58;;;;;;;4.50;3.00;;;;;;;17.49;100.00;102302.72;6091443;23;20170;-70
2023/09/05 08:05:24;;;;;;;4.60;3.30;;;;;;;17.49;100.00;102336.09;6090716;23;20153;-71
2023/09/05 08:07:50;;;;;;;4.50;3.50;;;;;;;17.43;100.00;102293.53;6090867;23;20382;-70
2023/09/05 08:10:16;;;;;;;5.33;3.80;;;;;;;17.76;100.00;102338.78;6090498;23;20666;-70
2023/09/05 08:12:42;;;;;;;4.73;3.70;;;;;;;17.77;100.00;102330.44;6090703;23;20383;-70
2023/09/05 08:15:09;;;;;;;4.40;3.30;;;;;;;17.15;100.00;102228.66;6089447;23;20418;-70
2023/09/05 08:17:35;;;;;;;5.13;3.70;;;;;;;17.13;100.00;102200.94;6090260;23;20383;-70
2023/09/05 08:20:01;;;;;;;4.30;3.47;;;;;;;18.05;100.00;102330.22;6091846;23;20395;-70
2023/09/05 08:22:26;;;;;;;4.43;3.30;;;;;;;18.07;100.00;102324.56;6064314;23;20159;-71
2023/09/05 08:24:52;;;;;;;5.07;3.93;;;;;;;18.13;100.00;102317.47;6091532;23;20177;-71
2023/09/05 08:27:19;;;;;;;4.90;3.80;;;;;;;17.43;100.00;102223.00;6090480;23;20498;-70
2023/09/05 08:29:44;;;;;;;4.80;3.63;;;;;;;18.25;100.00;102327.47;6091635;23;20178;-71
2023/09/05 08:32:11;;;;;;;7.40;3.90;;;;;;;17.49;100.00;102195.03;6064151;23;20461;-71
2023/09/05 08:34:40;;;;;;;5.00;3.67;;;;;;;18.40;100.00;102293.75;6065757;23;20178;-71
2023/09/05 08:37:06;;;;;;;4.87;3.40;;;;;;;18.54;100.00;102300.78;6064261;23;20437;-71
2023/09/05 08:39:32;;;;;;;4.60;2.80;;;;;;;18.61;100.00;102314.38;6089541;23;20415;-70
2023/09/05 08:41:57;;;;;;;4.23;3.20;;;;;;;18.17;100.00;102229.09;6088752;23;20193;-71
2023/09/05 08:44:23;;;;;;;4.77;2.83;;;;;;;18.48;100.00;102240.00;6091031;23;20159;-71
2023/09/05 08:46:50;;;;;;;5.43;3.67;;;;;;;18.66;100.00;102273.75;6089346;23;20155;-71
2023/09/05 08:49:15;;;;;;;5.57;3.43;;;;;;;18.67;100.00;102243.66;6088609;23;20399;-71
2023/09/05 08:51:43;;;;;;;5.40;4.53;;;;;;;18.84;100.00;102226.88;6090514;23;20856;-71
2023/09/05 08:54:13;;;;;;;4.70;3.57;;;;;;;18.99;100.00;102248.31;6066100;23;20223;-71
2023/09/05 08:56:39;;;;;;;5.63;3.70;;;;;;;18.63;100.00;102204.41;6091118;23;20410;-71
2023/09/05 08:59:04;;;;;;;6.50;4.60;;;;;;;19.49;100.00;102262.72;6089509;23;20461;-71
2023/09/05 09:01:32;;;;;;;5.30;4.00;;;;;;;18.67;100.00;102134.13;6064344;23;20198;-71
2023/09/05 09:03:59;;;;;;;4.80;3.30;;;;;;;19.59;100.00;102270.38;6091132;23;20225;-71
2023/09/05 09:06:25;;;;;;;4.43;2.80;;;;;;;19.39;100.00;102265.13;6091051;23;20382;-71
2023/09/05 09:08:52;;;;;;;5.20;3.33;;;;;;;19.52;100.00;102267.72;6089235;23;20399;-71
2023/09/05 09:11:22;;;;;;;8.37;4.50;;;;;;;19.85;100.00;102236.63;6091170;23;20411;-71
2023/09/05 09:13:49;;;;;;;5.20;3.77;;;;;;;19.94;100.00;102237.16;6092756;23;20374;-71
2023/09/05 09:16:18;;;;;;;5.73;4.33;;;;;;;19.89;100.00;102234.28;6091873;23;20429;-71
2023/09/05 09:18:48;;;;;;;4.87;3.00;;;;;;;19.81;100.00;102219.06;6091915;23;20498;-71
2023/09/05 09:21:17;;;;;;;5.27;3.50;;;;;;;19.93;100.00;102241.78;6092719;23;20386;-70
2023/09/05 09:23:44;;;;;;;7.77;3.80;;;;;;;20.07;100.00;102243.25;6092676;23;20378;-71
2023/09/05 09:26:10;;;;;;;6.17;3.50;;;;;;;20.21;100.00;102227.59;6092369;23;20378;-70
2023/09/05 09:28:37;;;;;;;4.70;3.13;;;;;;;20.13;100.00;102230.63;6091063;23;20824;-70
2023/09/05 09:31:05;;;;;;;4.53;3.13;;;;;;;19.89;100.00;102205.16;6088299;23;20158;-70
2023/09/05 09:33:32;;;;;;;5.33;3.33;;;;;;;19.50;100.00;102139.22;6092581;23;20386;-71
2023/09/05 09:36:01;;;;;;;3.60;2.50;;;;;;;20.21;100.00;102229.50;6091981;23;20753;-70
2023/09/05 09:38:28;;;;;;;3.77;2.60;;;;;;;20.28;100.00;102206.56;6092923;23;20490;-71
2023/09/05 09:40:55;;;;;;;3.70;2.57;;;;;;;20.35;100.00;102201.00;6093314;23;20440;-71
2023/09/05 09:43:20;;;;;;;4.83;2.40;;;;;;;20.55;100.00;102208.94;6093077;23;20410;-71
2023/09/05 09:45:46;;;;;;;3.67;2.20;;;;;;;20.67;100.00;102195.34;6092150;23;20398;-71
2023/09/05 09:48:15;;;;;;;4.20;2.57;;;;;;;20.42;100.00;102136.31;6091207;23;20170;-71
2023/09/05 09:50:43;;;;;;;4.10;2.70;;;;;;;19.82;100.00;102022.84;6091723;23;20155;-71
2023/09/05 09:53:12;;;;;;;4.67;2.53;;;;;;;20.48;100.00;102138.16;6092655;23;20370;-70
2023/09/05 09:55:43;;;;;;;3.63;2.00;;;;;;;21.03;100.00;102201.66;6091891;23;20418;-70
2023/09/05 09:58:14;;;;;;;3.03;2.00;;;;;;;21.10;100.00;102188.75;6066045;23;21086;-70
2023/09/05 10:00:45;;;;;;;3.10;1.87;;;;;;;20.91;100.00;102179.84;6089965;23;20389;-71
2023/09/05 10:03:13;;;;;;;3.37;2.20;;;;;;;20.88;100.00;102205.69;6066552;23;20398;-71
2023/09/05 10:05:41;;;;;;;3.70;2.43;;;;;;;20.26;100.00;102098.88;6091470;23;20379;-71
2023/09/05 10:08:09;;;;;;;3.37;1.83;;;;;;;21.12;100.00;102194.81;6090409;23;20375;-71
2023/09/05 10:10:38;;;;;;;3.60;2.07;;;;;;;21.25;100.00;102171.91;6092896;23;20383;-71
2023/09/05 10:13:06;;;;;;;3.43;2.20;;;;;;;20.66;100.00;102114.63;6093383;23;20482;-71
2023/09/05 10:15:33;;;;;;;3.60;2.07;;;;;;;20.64;100.00;102067.69;6090624;23;20820;-71
2023/09/05 10:18:00;;;;;;;2.83;1.60;;;;;;;21.49;100.00;102162.66;6090600;23;20388;-71
2023/09/05 10:20:27;;;;;;;3.40;1.80;;;;;;;21.52;100.00;102147.69;6091127;23;20464;-71
2023/09/05 10:22:53;;;;;;;3.40;1.70;;;;;;;21.66;100.00;102162.75;6090158;23;20382;-71
2023/09/05 10:25:20;;;;;;;3.13;1.50;;;;;;;21.86;100.00;102168.63;6088207;23;20710;-71
2023/09/05 10:27:46;;;;;;;3.47;2.20;;;;;;;21.41;100.00;102127.56;6064803;23;20394;-71
2023/09/05 10:30:12;;;;;;;3.50;2.10;;;;;;;21.59;100.00;102167.53;6064904;23;20505;-72
2023/09/05 10:32:42;;;;;;;3.83;1.93;;;;;;;21.61;100.00;102143.53;6062207;23;20170;-73
2023/09/05 10:35:07;;;;;;;4.07;2.00;;;;;;;21.08;100.00;102047.13;6090981;23;20590;-73
2023/09/05 10:37:33;;;;;;;2.90;1.70;;;;;;;21.92;100.00;102149.63;6064236;23;20394;-72
2023/09/05 10:40:07;;;;;;;4.50;2.30;;;;;;;22.01;100.00;102145.41;6090723;23;20178;-73
2023/09/05 10:42:33;;;;;;;3.00;1.77;;;;;;;22.19;100.00;102145.28;6089108;23;20139;-73
2023/09/05 10:45:15;;;;;;;5.93;1.83;;;;;;;22.29;100.00;102139.16;6092690;23;20397;-73
2023/09/05 10:47:40;;;;;;;3.43;1.67;;;;;;;22.02;100.00;102096.00;6090813;23;21011;-73
2023/09/05 10:50:09;;;;;;;5.23;1.90;;;;;;;22.14;100.00;102081.47;6091636;23;20429;-73
2023/09/05 10:52:35;;;;;;;2.83;1.50;;;;;;;22.16;100.00;102066.50;6085695;23;20384;-73
2023/09/05 10:55:29;;;;;;;3.10;1.70;;;;;;;22.07;100.00;102046.09;6088174;23;20391;-74
2023/09/05 10:57:55;;;;;;;3.23;1.93;;;;;;;22.57;100.00;102108.19;6091415;23;20542;-72
2023/09/05 11:00:23;;;;;;;6.20;1.80;;;;;;;22.68;100.00;102106.44;6090449;23;20386;-72
2023/09/05 11:02:49;;;;;;;2.60;1.40;;;;;;;22.73;100.00;102117.47;6090697;23;20398;-73
2023/09/05 11:05:18;;;;;;;3.67;2.10;;;;;;;22.80;100.00;102090.78;6065921;23;20457;-73
2023/09/05 11:07:44;;;;;;;2.87;1.67;;;;;;;22.42;100.00;102034.13;6089892;23;20462;-73
2023/09/05 11:10:29;;;;;;;3.83;1.70;;;;;;;22.87;100.00;102096.91;6091240;23;20418;-74
2023/09/05 11:12:55;;;;;;;3.30;1.90;;;;;;;22.85;100.00;102065.41;6092006;23;20720;-74
2023/09/05 11:15:31;;;;;;;2.93;1.40;;;;;;;22.81;100.00;102091.63;6091952;23;20913;-73